Time;durP1;ratioP1;P1;durP2;ratioP2;P2;SDS_P1;SDS_P2;PMS_P1;PMS_P2;Temp;Humidity;BMP_temperature;BMP_pressure;BME280_temperature;BME280_humidity;BME280_pressure;Samples;Min_cycle;Max_cycle;Signal;HPM_P1;HPM_P2
2022/04/04 00:00:13;;;;;;;15.87;10.73;;;-2.00;30.60;;;;;;4993362;28;20630;-72
2022/04/04 00:02:39;;;;;;;12.97;11.00;;;-2.00;30.40;;;;;;4993217;28;20662;-71
2022/04/04 00:05:05;;;;;;;12.63;11.00;;;-2.10;30.40;;;;;;4993298;28;21005;-72
2022/04/04 00:07:31;;;;;;;12.10;10.90;;;-2.10;30.60;;;;;;4992996;28;20188;-72
2022/04/04 00:09:56;;;;;;;11.43;10.33;;;-2.10;30.40;;;;;;4993250;28;20416;-71
2022/04/04 00:12:22;;;;;;;13.17;11.60;;;-2.20;30.30;;;;;;4991935;28;20213;-71
2022/04/04 00:14:49;;;;;;;11.63;10.33;;;-2.30;30.70;;;;;;4993057;28;20632;-72
2022/04/04 00:17:14;;;;;;;11.85;10.55;;;-2.30;30.90;;;;;;4993003;28;20471;-71
2022/04/04 00:19:40;;;;;;;11.27;10.17;;;-2.30;30.80;;;;;;4993259;28;20207;-72
2022/04/04 00:22:06;;;;;;;12.83;11.53;;;-2.30;30.20;;;;;;4992779;28;20220;-71
2022/04/04 00:24:32;;;;;;;14.83;11.00;;;-2.20;29.90;;;;;;4993035;28;20408;-71
2022/04/04 00:26:57;;;;;;;12.65;10.65;;;-2.20;29.50;;;;;;4993127;28;20185;-71
2022/04/04 00:29:24;;;;;;;13.87;11.90;;;-2.30;29.50;;;;;;4991464;28;20230;-71
2022/04/04 00:31:50;;;;;;;12.02;10.63;;;-2.30;29.70;;;;;;4992623;28;20184;-71
2022/04/04 00:34:16;;;;;;;13.23;11.55;;;-2.40;29.80;;;;;;4991372;28;20187;-72
2022/04/04 00:36:43;;;;;;;13.77;12.20;;;-2.40;30.00;;;;;;4992419;28;20694;-72
2022/04/04 00:39:16;;;;;;;12.50;11.38;;;-2.40;29.90;;;;;;4992627;28;20588;-72
2022/04/04 00:41:43;;;;;;;13.52;11.73;;;-2.40;29.80;;;;;;4992937;28;20682;-72
2022/04/04 00:44:09;;;;;;;11.65;10.70;;;-2.50;29.60;;;;;;4993022;28;20179;-72
2022/04/04 00:46:39;;;;;;;14.47;12.30;;;-2.60;29.30;;;;;;4992460;28;20188;-71
2022/04/04 00:49:05;;;;;;;13.60;12.23;;;-2.60;29.50;;;;;;4991075;28;20264;-72
2022/04/04 00:51:30;;;;;;;15.52;12.13;;;-2.60;29.50;;;;;;4992450;28;20211;-71
2022/04/04 00:53:56;;;;;;;11.97;10.87;;;-2.70;29.60;;;;;;4990984;28;20216;-71
2022/04/04 00:56:22;;;;;;;14.63;12.67;;;-2.70;29.40;;;;;;4992281;28;20216;-72
2022/04/04 00:58:48;;;;;;;12.13;11.03;;;-2.70;29.70;;;;;;4992391;28;20630;-68
2022/04/04 01:01:13;;;;;;;14.10;12.70;;;-2.70;29.70;;;;;;4995335;28;20419;-68
2022/04/04 01:03:39;;;;;;;11.90;10.70;;;-2.70;29.70;;;;;;4996518;28;20485;-69
2022/04/04 01:06:04;;;;;;;13.20;12.00;;;-2.70;29.30;;;;;;4996511;28;20234;-69
2022/04/04 01:08:31;;;;;;;19.43;12.07;;;-2.80;29.30;;;;;;4997174;28;20409;-69
2022/04/04 01:10:57;;;;;;;11.23;10.10;;;-2.80;29.70;;;;;;4995840;28;20181;-68
2022/04/04 01:13:22;;;;;;;13.70;12.30;;;-2.80;29.30;;;;;;4996776;28;20192;-69
2022/04/04 01:15:48;;;;;;;12.43;11.23;;;-2.80;29.40;;;;;;4996488;28;20183;-69
2022/04/04 01:18:14;;;;;;;11.03;9.90;;;-2.70;29.10;;;;;;4995910;28;20415;-69
2022/04/04 01:20:39;;;;;;;12.73;10.67;;;-2.70;28.80;;;;;;4996955;28;20180;-68
2022/04/04 01:23:05;;;;;;;14.57;11.13;;;-2.70;28.80;;;;;;4995674;28;20219;-69
2022/04/04 01:25:35;;;;;;;11.90;10.80;;;-2.80;28.80;;;;;;4996070;28;20172;-68
2022/04/04 01:28:02;;;;;;;15.27;10.40;;;-2.90;28.90;;;;;;4995996;28;20411;-69
2022/04/04 01:30:28;;;;;;;12.48;11.23;;;-2.90;28.70;;;;;;4996313;28;20227;-69
2022/04/04 01:32:54;;;;;;;11.27;10.27;;;-2.90;28.90;;;;;;4997711;28;20200;-68
2022/04/04 01:35:21;;;;;;;12.93;10.33;;;-2.90;28.60;;;;;;4997653;28;20545;-68
2022/04/04 01:37:47;;;;;;;16.83;10.68;;;-2.90;28.60;;;;;;4995971;28;20490;-69
2022/04/04 01:40:13;;;;;;;12.13;10.77;;;-2.90;28.50;;;;;;4995859;28;20619;-68
2022/04/04 01:42:39;;;;;;;13.40;12.10;;;-2.90;27.90;;;;;;4997110;28;20251;-68
2022/04/04 01:45:07;;;;;;;12.95;11.75;;;-3.00;28.10;;;;;;4996345;28;20172;-69
2022/04/04 01:47:33;;;;;;;11.98;10.75;;;-3.00;28.30;;;;;;4994010;28;20180;-69
2022/04/04 01:49:59;;;;;;;11.77;9.87;;;-3.00;28.60;;;;;;4999494;28;20192;-69
2022/04/04 01:52:25;;;;;;;12.45;11.27;;;-2.90;28.20;;;;;;4996348;28;20266;-69
2022/04/04 01:54:51;;;;;;;11.80;10.53;;;-3.00;28.10;;;;;;4996768;28;20184;-69
2022/04/04 01:57:16;;;;;;;13.00;11.02;;;-3.00;28.10;;;;;;4995618;28;20466;-69
2022/04/04 01:59:42;;;;;;;11.50;10.30;;;-3.10;28.10;;;;;;4997037;28;20187;-68
2022/04/04 02:02:07;;;;;;;13.00;11.30;;;-3.20;28.40;;;;;;4996446;28;20199;-68
2022/04/04 02:04:33;;;;;;;13.73;11.07;;;-3.10;28.40;;;;;;4996861;28;20176;-69
2022/04/04 02:06:59;;;;;;;11.40;10.30;;;-3.20;28.20;;;;;;4999306;28;20195;-69
2022/04/04 02:09:25;;;;;;;12.00;10.43;;;-3.20;28.20;;;;;;4996604;28;20548;-68
2022/04/04 02:11:51;;;;;;;12.93;11.60;;;-3.20;28.10;;;;;;4995422;28;20430;-68
2022/04/04 02:14:16;;;;;;;13.60;12.30;;;-3.30;27.90;;;;;;4996881;28;20176;-69
2022/04/04 02:16:43;;;;;;;11.17;9.93;;;-3.40;27.90;;;;;;4996046;28;20210;-69
2022/04/04 02:19:09;;;;;;;12.73;11.45;;;-3.40;28.00;;;;;;4996568;28;20173;-69
2022/04/04 02:21:35;;;;;;;12.90;11.70;;;-3.40;28.00;;;;;;4996245;28;20180;-68
2022/04/04 02:24:01;;;;;;;13.17;11.50;;;-3.50;28.00;;;;;;5019545;28;20587;-69
2022/04/04 02:26:27;;;;;;;13.30;11.10;;;-3.50;28.30;;;;;;5026761;28;20483;-68
2022/04/04 02:28:53;;;;;;;11.80;10.37;;;-3.50;28.30;;;;;;4996914;28;20423;-69
2022/04/04 02:31:18;;;;;;;12.03;11.03;;;-3.50;28.20;;;;;;4995788;28;20177;-69
2022/04/04 02:33:44;;;;;;;12.70;11.40;;;-3.60;28.10;;;;;;5026436;28;20196;-68
2022/04/04 02:36:10;;;;;;;13.30;11.80;;;-3.60;27.90;;;;;;4994420;28;20207;-68
2022/04/04 02:38:36;;;;;;;15.80;13.02;;;-3.60;28.00;;;;;;4994440;28;20537;-68
2022/04/04 02:41:01;;;;;;;13.20;11.90;;;-3.70;28.30;;;;;;4995425;28;20184;-69
2022/04/04 02:43:27;;;;;;;13.23;11.30;;;-3.60;28.40;;;;;;4996328;28;20231;-68
2022/04/04 02:45:53;;;;;;;14.03;11.80;;;-3.70;28.60;;;;;;4996568;28;20427;-69
2022/04/04 02:48:19;;;;;;;12.30;11.20;;;-3.70;28.50;;;;;;4996465;28;20976;-69
2022/04/04 02:50:46;;;;;;;14.60;12.17;;;-3.70;28.20;;;;;;5010589;28;20426;-68
2022/04/04 02:53:13;;;;;;;12.90;11.65;;;-3.70;27.80;;;;;;5017186;28;20446;-69
2022/04/04 02:58:23;;;;;;;19.58;12.43;;;-3.90;27.40;;;;;;5016042;28;20551;-69
2022/04/04 03:00:48;;;;;;;12.10;11.00;;;-3.90;27.70;;;;;;5015834;28;20197;-69
2022/04/04 03:03:14;;;;;;;12.87;10.97;;;-4.00;27.60;;;;;;5016077;28;20277;-68
2022/04/04 03:05:40;;;;;;;13.80;12.40;;;-4.10;27.60;;;;;;5016536;28;20183;-69
2022/04/04 03:08:06;;;;;;;12.13;11.00;;;-4.10;27.70;;;;;;5014809;28;20198;-69
2022/04/04 03:10:33;;;;;;;13.68;11.90;;;-4.10;27.80;;;;;;5015659;28;20419;-69
2022/04/04 03:13:02;;;;;;;13.32;10.80;;;-4.00;27.80;;;;;;5015198;28;20711;-68
2022/04/04 03:15:28;;;;;;;13.27;12.00;;;-4.10;28.00;;;;;;5014355;28;20559;-69
2022/04/04 03:17:56;;;;;;;12.80;11.50;;;-4.10;27.90;;;;;;5014146;28;20210;-70
2022/04/04 03:20:24;;;;;;;13.77;10.98;;;-4.10;28.20;;;;;;5014601;28;20175;-70
2022/04/04 03:22:52;;;;;;;12.80;11.50;;;-4.10;28.30;;;;;;5013795;28;20222;-69
2022/04/04 03:25:18;;;;;;;11.80;10.65;;;-4.10;27.80;;;;;;5014023;28;20168;-69
2022/04/04 03:27:45;;;;;;;12.17;10.97;;;-4.10;27.50;;;;;;5014301;28;20184;-69
2022/04/04 03:30:19;;;;;;;13.32;11.65;;;-4.10;27.40;;;;;;5013013;28;20426;-68
2022/04/04 03:32:46;;;;;;;12.07;10.00;;;-4.10;27.60;;;;;;5013528;28;20558;-69
2022/04/04 03:35:15;;;;;;;13.35;11.98;;;-4.10;27.80;;;;;;5013806;28;20210;-69
2022/04/04 03:37:43;;;;;;;11.60;10.35;;;-4.20;27.80;;;;;;5013644;28;20226;-68
2022/04/04 03:40:12;;;;;;;12.48;11.20;;;-4.10;27.90;;;;;;5013692;28;20176;-68
2022/04/04 03:42:38;;;;;;;13.80;12.60;;;-4.10;27.60;;;;;;5013357;28;20192;-69
2022/04/04 03:45:04;;;;;;;13.73;11.17;;;-4.10;27.50;;;;;;5013717;28;20171;-69
2022/04/04 03:47:31;;;;;;;15.82;12.45;;;-4.10;27.70;;;;;;5013167;28;20414;-69
2022/04/04 03:49:59;;;;;;;11.85;10.63;;;-4.10;27.50;;;;;;5013441;28;20184;-69
2022/04/04 03:52:25;;;;;;;11.38;10.48;;;-4.10;27.30;;;;;;5013301;28;20592;-69
2022/04/04 03:54:50;;;;;;;13.52;11.20;;;-4.10;27.50;;;;;;5013734;28;20669;-69
2022/04/04 03:57:16;;;;;;;11.47;10.20;;;-4.10;27.60;;;;;;5013271;28;20302;-68
2022/04/04 03:59:42;;;;;;;12.20;11.00;;;-4.10;27.70;;;;;;5013832;28;20175;-69
2022/04/04 04:02:07;;;;;;;11.17;10.10;;;-4.10;27.80;;;;;;5013807;28;20191;-69
2022/04/04 04:04:33;;;;;;;11.80;10.67;;;-4.00;27.90;;;;;;5013623;28;20176;-69
2022/04/04 04:06:58;;;;;;;11.10;10.03;;;-4.10;28.20;;;;;;5012906;28;20231;-69
2022/04/04 04:09:23;;;;;;;12.13;10.90;;;-4.20;28.10;;;;;;5012729;28;20575;-69
2022/04/04 04:11:49;;;;;;;13.77;11.23;;;-4.20;28.30;;;;;;5013743;28;20194;-68
2022/04/04 04:14:15;;;;;;;11.07;10.07;;;-4.30;28.40;;;;;;5013759;28;20237;-69
2022/04/04 04:16:40;;;;;;;12.40;9.93;;;-4.20;28.10;;;;;;5013433;28;20578;-69
2022/04/04 04:20:19;;;;;;;14.20;12.10;;;-4.10;27.70;;;;;;5014800;28;20231;-68
2022/04/04 04:21:51;;;;;;;18.58;13.00;;;-4.10;27.20;;;;;;5014676;28;20542;-69
2022/04/04 04:24:17;;;;;;;12.67;11.40;;;-4.10;27.30;;;;;;5014465;28;20176;-69
2022/04/04 04:26:42;;;;;;;13.57;12.17;;;-4.00;27.40;;;;;;5014492;28;20268;-68
2022/04/04 04:29:08;;;;;;;15.47;10.67;;;-4.10;27.80;;;;;;5012649;28;20191;-68
2022/04/04 04:31:34;;;;;;;14.73;12.17;;;-4.10;27.30;;;;;;5014231;28;20645;-68
2022/04/04 04:34:00;;;;;;;12.43;11.15;;;-4.10;27.10;;;;;;5013438;28;20222;-69
2022/04/04 04:36:26;;;;;;;13.43;10.70;;;-4.20;27.10;;;;;;5013887;28;20290;-68
2022/04/04 04:38:51;;;;;;;12.93;11.70;;;-4.20;27.00;;;;;;5012738;28;20214;-69
2022/04/04 04:41:17;;;;;;;12.07;10.90;;;-4.20;27.00;;;;;;5013967;28;20548;-69
2022/04/04 04:43:42;;;;;;;16.33;13.10;;;-4.20;26.90;;;;;;5012496;28;20744;-69
2022/04/04 04:46:08;;;;;;;12.67;11.37;;;-4.20;27.00;;;;;;5014379;28;20207;-68
2022/04/04 04:48:33;;;;;;;13.70;11.63;;;-4.20;27.00;;;;;;5014105;28;20211;-69
2022/04/04 04:50:59;;;;;;;12.90;11.53;;;-4.20;27.20;;;;;;5013631;28;20179;-69
2022/04/04 04:53:24;;;;;;;12.57;11.27;;;-4.10;27.30;;;;;;5013616;28;20206;-70
2022/04/04 04:55:50;;;;;;;12.97;10.80;;;-4.20;27.30;;;;;;5013043;28;20176;-69
2022/04/04 04:58:16;;;;;;;13.17;11.17;;;-4.10;27.30;;;;;;5013094;28;20183;-69
2022/04/04 05:00:41;;;;;;;11.77;10.53;;;-4.10;27.00;;;;;;5013555;28;20411;-70
2022/04/04 05:03:25;;;;;;;13.47;12.13;;;-4.10;26.90;;;;;;5011980;28;20192;-70
2022/04/04 05:05:51;;;;;;;13.00;10.82;;;-4.00;26.60;;;;;;5015176;28;20548;-69
2022/04/04 05:08:20;;;;;;;16.10;12.82;;;-3.90;26.50;;;;;;5014354;28;20555;-70
2022/04/04 05:10:50;;;;;;;13.32;12.05;;;-3.80;26.50;;;;;;5012660;28;20180;-67
2022/04/04 05:13:19;;;;;;;12.93;11.63;;;-3.80;26.40;;;;;;5012174;28;20217;-69
2022/04/04 05:15:45;;;;;;;16.45;13.82;;;-3.80;26.70;;;;;;5012646;28;20179;-69
2022/04/04 05:18:11;;;;;;;17.08;14.77;;;-3.80;26.70;;;;;;5014611;28;20171;-69
2022/04/04 05:20:37;;;;;;;14.60;12.47;;;-3.80;27.00;;;;;;5013484;28;20538;-69
2022/04/04 05:23:02;;;;;;;17.13;13.80;;;-3.80;26.50;;;;;;5012663;28;20219;-68
2022/04/04 05:25:28;;;;;;;12.60;11.27;;;-3.70;26.30;;;;;;5011906;28;20449;-69
2022/04/04 05:27:55;;;;;;;14.80;13.40;;;-3.70;26.30;;;;;;5011439;28;20179;-73
2022/04/04 05:30:21;;;;;;;18.50;12.95;;;-3.70;26.60;;;;;;5011442;28;20263;-73
2022/04/04 05:32:47;;;;;;;14.13;12.67;;;-3.70;25.90;;;;;;5011852;28;20283;-73
2022/04/04 05:35:14;;;;;;;15.83;11.63;;;-3.60;26.00;;;;;;5011490;28;20418;-68
2022/04/04 05:37:41;;;;;;;13.75;11.82;;;-3.60;25.70;;;;;;5009954;28;20463;-69
2022/04/04 05:40:07;;;;;;;14.13;12.60;;;-3.50;25.70;;;;;;5010471;28;20188;-69
2022/04/04 05:42:34;;;;;;;19.00;11.55;;;-3.40;25.90;;;;;;5011477;28;20566;-68
2022/04/04 05:45:00;;;;;;;14.43;12.73;;;-3.30;26.10;;;;;;5011851;28;20181;-67
2022/04/04 05:47:26;;;;;;;12.30;11.20;;;-3.10;25.40;;;;;;5015446;28;20184;-68
2022/04/04 05:49:51;;;;;;;12.90;11.90;;;-2.90;25.90;;;;;;5014519;28;20911;-69
2022/04/04 05:52:20;;;;;;;13.30;11.83;;;-2.70;25.80;;;;;;5014229;28;20454;-69
2022/04/04 05:54:57;;;;;;;11.68;10.57;;;-2.40;26.90;;;;;;5015000;28;20416;-68
2022/04/04 05:57:27;;;;;;;11.50;10.57;;;-2.10;24.20;;;;;;5015173;28;20615;-69
2022/04/04 05:59:54;;;;;;;11.88;10.88;;;-1.90;23.50;;;;;;5015335;28;20559;-69
2022/04/04 06:02:20;;;;;;;13.05;11.75;;;-1.80;24.00;;;;;;5015801;28;20663;-69
2022/04/04 06:04:46;;;;;;;13.75;12.45;;;-1.60;23.30;;;;;;5015115;28;20601;-70
2022/04/04 06:07:11;;;;;;;13.77;12.47;;;-1.20;24.40;;;;;;5015098;28;20642;-70
2022/04/04 06:09:37;;;;;;;12.17;11.10;;;-0.90;23.30;;;;;;5015545;28;20231;-68
2022/04/04 06:12:03;;;;;;;12.37;11.47;;;-0.60;21.80;;;;;;5015080;28;20709;-70
2022/04/04 06:14:28;;;;;;;13.75;12.50;;;-0.30;21.70;;;;;;5014808;28;20255;-69
2022/04/04 06:16:55;;;;;;;14.47;13.17;;;0.20;22.30;;;;;;5013973;28;20201;-70
2022/04/04 06:19:20;;;;;;;15.80;14.30;;;0.60;21.50;;;;;;5013841;28;20238;-70
2022/04/04 06:21:46;;;;;;;13.50;12.40;;;0.90;19.60;;;;;;5015073;28;20396;-69
2022/04/04 06:24:12;;;;;;;13.07;11.90;;;1.40;20.50;;;;;;5014211;28;20179;-70
2022/04/04 06:26:39;;;;;;;13.40;12.27;;;2.10;19.90;;;;;;5013927;28;20667;-70
2022/04/04 06:29:04;;;;;;;14.50;13.40;;;2.90;18.80;;;;;;5013960;28;20222;-69
2022/04/04 06:31:30;;;;;;;16.50;15.20;;;3.80;17.20;;;;;;5014239;28;20551;-67
2022/04/04 06:33:55;;;;;;;16.37;15.27;;;4.60;15.60;;;;;;5013681;28;20205;-71
2022/04/04 06:36:23;;;;;;;16.37;15.27;;;5.20;14.60;;;;;;5012534;28;20230;-74
2022/04/04 06:38:50;;;;;;;18.50;16.90;;;5.40;11.90;;;;;;5013649;28;20586;-73
2022/04/04 06:41:16;;;;;;;16.90;15.43;;;5.90;13.60;;;;;;5008898;28;20423;-75
2022/04/04 06:43:41;;;;;;;17.00;15.97;;;6.50;10.60;;;;;;5010238;28;20565;-73
2022/04/04 06:46:07;;;;;;;16.10;15.20;;;7.10;11.70;;;;;;5011262;28;20489;-72
2022/04/04 06:48:32;;;;;;;17.40;16.20;;;7.60;11.70;;;;;;5007418;28;20211;-73
2022/04/04 06:50:59;;;;;;;17.50;16.40;;;8.00;11.50;;;;;;5010329;28;20223;-73
2022/04/04 06:53:24;;;;;;;18.50;17.40;;;8.50;9.90;;;;;;5009326;28;20545;-75
2022/04/04 06:55:50;;;;;;;19.13;17.63;;;9.00;8.20;;;;;;5005712;28;20448;-71
2022/04/04 06:58:16;;;;;;;18.27;17.10;;;9.20;7.50;;;;;;5004651;28;20212;-73
2022/04/04 07:00:42;;;;;;;19.07;17.83;;;9.20;6.70;;;;;;4989026;28;20202;-73
2022/04/04 07:03:08;;;;;;;18.93;17.53;;;9.50;7.10;;;;;;5003576;28;20449;-73
2022/04/04 07:05:37;;;;;;;18.70;17.40;;;9.90;5.90;;;;;;5006163;28;20440;-74
2022/04/04 07:08:03;;;;;;;17.87;16.87;;;10.20;4.40;;;;;;5009644;28;20427;-72
2022/04/04 07:10:29;;;;;;;18.73;17.57;;;10.40;2.90;;;;;;5010052;28;20824;-72
2022/04/04 07:13:00;;;;;;;17.30;16.30;;;10.50;3.30;;;;;;5010659;28;20446;-73
2022/04/04 07:15:26;;;;;;;18.40;17.50;;;10.80;3.30;;;;;;5008696;28;20291;-73
2022/04/04 07:17:52;;;;;;;17.40;16.50;;;10.90;2.60;;;;;;5008372;28;20574;-73
2022/04/04 07:20:19;;;;;;;19.87;18.67;;;10.70;3.20;;;;;;5008417;28;20202;-73
2022/04/04 07:22:45;;;;;;;20.27;18.77;;;10.20;2.70;;;;;;5009953;28;20535;-73
2022/04/04 07:25:11;;;;;;;20.73;19.30;;;9.60;3.60;;;;;;5009514;28;20520;-72
2022/04/04 07:27:42;;;;;;;20.10;18.50;;;9.10;3.10;;;;;;4995485;28;20454;-75
2022/04/04 07:30:10;;;;;;;20.30;18.67;;;8.60;3.40;;;;;;4990171;28;21099;-73
2022/04/04 07:32:37;;;;;;;18.67;17.50;;;8.20;4.80;;;;;;4990152;28;20444;-73
2022/04/04 07:35:04;;;;;;;20.43;18.73;;;7.60;4.80;;;;;;5008058;28;20490;-72
2022/04/04 07:37:30;;;;;;;20.20;18.50;;;7.30;4.70;;;;;;5008414;28;20467;-73
2022/04/04 07:39:56;;;;;;;19.37;17.93;;;7.00;6.60;;;;;;5008517;28;20426;-72
2022/04/04 07:42:22;;;;;;;19.03;17.83;;;6.90;6.60;;;;;;5013379;28;20427;-72
2022/04/04 07:44:47;;;;;;;18.77;17.53;;;6.90;6.90;;;;;;5013086;28;20411;-73
2022/04/04 07:47:13;;;;;;;18.70;17.30;;;6.80;6.70;;;;;;5013218;28;20180;-73
2022/04/04 07:49:38;;;;;;;18.53;17.17;;;6.70;6.40;;;;;;5012439;28;20220;-72
2022/04/04 07:52:04;;;;;;;19.17;17.83;;;6.70;6.00;;;;;;5011672;28;20200;-72
2022/04/04 07:54:30;;;;;;;17.93;16.63;;;6.50;5.80;;;;;;5011923;28;20559;-73
2022/04/04 07:56:56;;;;;;;17.17;16.17;;;6.20;6.70;;;;;;5012608;28;20458;-72
2022/04/04 07:59:23;;;;;;;17.67;16.03;;;6.20;6.70;;;;;;5011065;28;20211;-74
2022/04/04 08:01:49;;;;;;;16.87;15.80;;;6.30;8.00;;;;;;5011381;28;20600;-72
2022/04/04 08:04:14;;;;;;;16.33;15.43;;;6.70;7.90;;;;;;5011365;28;20427;-72
2022/04/04 08:06:40;;;;;;;18.67;17.27;;;7.10;8.60;;;;;;5012049;28;20676;-72
2022/04/04 08:09:05;;;;;;;18.20;16.70;;;7.40;6.50;;;;;;5010453;28;20184;-72
2022/04/04 08:11:31;;;;;;;17.67;16.33;;;7.50;7.20;;;;;;5011066;28;20730;-72
2022/04/04 08:13:56;;;;;;;29.70;16.70;;;7.70;6.90;;;;;;5010833;28;20289;-72
2022/04/04 08:16:26;;;;;;;16.47;15.47;;;7.90;8.50;;;;;;5012254;28;20217;-73
2022/04/04 08:18:53;;;;;;;17.50;16.50;;;8.30;8.20;;;;;;5012259;28;20181;-72
2022/04/04 08:21:19;;;;;;;16.67;15.70;;;8.60;7.20;;;;;;5012084;28;20417;-73
2022/04/04 08:23:45;;;;;;;16.57;15.63;;;8.80;6.50;;;;;;5010996;28;20453;-72
2022/04/04 08:26:11;;;;;;;17.20;15.80;;;9.00;7.00;;;;;;5012333;28;20418;-72
2022/04/04 08:28:37;;;;;;;16.90;15.90;;;9.10;6.90;;;;;;5011836;28;20230;-73
2022/04/04 08:31:03;;;;;;;15.60;14.80;;;9.20;5.50;;;;;;5012212;28;20181;-73
2022/04/04 08:33:29;;;;;;;17.50;16.47;;;8.60;5.00;;;;;;5011945;28;20449;-69
2022/04/04 08:35:55;;;;;;;18.37;17.20;;;8.70;5.60;;;;;;5008496;28;20421;-74
2022/04/04 08:38:21;;;;;;;19.27;17.60;;;8.50;5.00;;;;;;5008830;28;20179;-73
2022/04/04 08:40:49;;;;;;;16.07;15.17;;;8.30;6.40;;;;;;5002633;28;20535;-73
2022/04/04 08:43:18;;;;;;;16.63;15.73;;;7.90;5.40;;;;;;5002151;28;20555;-73
2022/04/04 08:45:44;;;;;;;17.90;16.80;;;7.70;6.50;;;;;;5011848;28;20443;-72
2022/04/04 08:48:12;;;;;;;15.40;14.53;;;7.50;6.20;;;;;;5011456;28;20434;-73
2022/04/04 08:50:39;;;;;;;15.83;14.87;;;6.90;7.60;;;;;;5011433;28;20415;-72
2022/04/04 08:53:05;;;;;;;15.70;14.90;;;6.90;8.40;;;;;;5010285;28;20438;-76
2022/04/04 08:55:31;;;;;;;14.83;14.07;;;6.70;6.40;;;;;;5009983;28;20546;-74
2022/04/04 08:57:57;;;;;;;15.60;14.70;;;6.40;7.20;;;;;;5009259;28;20457;-73
2022/04/04 09:00:24;;;;;;;14.80;14.10;;;6.40;6.60;;;;;;5011490;28;20406;-73
2022/04/04 09:03:03;;;;;;;15.37;14.23;;;6.30;7.00;;;;;;5008756;28;20192;-74
2022/04/04 09:05:32;;;;;;;14.23;13.33;;;6.20;7.70;;;;;;5009480;28;20426;-72
2022/04/04 09:08:00;;;;;;;15.77;14.43;;;6.20;7.10;;;;;;4999171;28;20429;-74
2022/04/04 09:10:34;;;;;;;15.20;14.20;;;6.20;8.00;;;;;;5012108;28;20411;-72
2022/04/04 09:13:08;;;;;;;15.53;14.63;;;6.20;7.40;;;;;;5010563;28;20437;-73
2022/04/04 09:16:06;;;;;;;14.77;14.07;;;6.10;6.90;;;;;;5011704;28;20789;-73
2022/04/04 09:18:39;;;;;;;15.83;14.93;;;6.10;6.80;;;;;;5011364;28;20423;-73
2022/04/04 09:21:18;;;;;;;16.90;15.70;;;6.10;7.20;;;;;;5013053;28;20436;-72
2022/04/04 09:23:46;;;;;;;15.87;14.97;;;6.20;8.70;;;;;;5014873;28;20472;-71
2022/04/04 09:26:35;;;;;;;13.87;13.17;;;6.30;8.10;;;;;;5015123;28;20473;-72
2022/04/04 09:29:16;;;;;;;15.40;14.60;;;6.40;7.60;;;;;;5015214;28;20411;-73
2022/04/04 09:31:52;;;;;;;14.37;13.67;;;6.20;9.10;;;;;;5013932;28;20440;-73
2022/04/04 09:34:21;;;;;;;15.23;14.23;;;6.10;6.80;;;;;;5010881;28;20414;-72
2022/04/04 09:36:47;;;;;;;14.37;13.47;;;6.10;6.60;;;;;;5014290;28;21001;-73
2022/04/04 09:39:14;;;;;;;15.67;14.70;;;6.10;5.60;;;;;;5014963;28;20984;-73
2022/04/04 09:41:40;;;;;;;14.30;13.43;;;6.20;4.80;;;;;;5014651;28;20423;-73
2022/04/04 09:44:08;;;;;;;15.27;14.47;;;5.90;6.10;;;;;;5014664;28;20798;-72
2022/04/04 09:46:39;;;;;;;15.57;14.63;;;6.00;7.60;;;;;;5012719;28;20241;-72
2022/04/04 09:49:15;;;;;;;14.90;13.93;;;6.10;7.90;;;;;;5014557;28;20428;-72
2022/04/04 09:51:46;;;;;;;14.43;13.70;;;6.20;13.20;;;;;;5014888;28;20425;-72
2022/04/04 09:54:26;;;;;;;13.80;13.00;;;6.10;7.30;;;;;;5014732;28;20431;-73
2022/04/04 09:57:11;;;;;;;14.50;13.70;;;6.20;7.20;;;;;;5013225;28;20469;-73
2022/04/04 09:59:38;;;;;;;15.20;14.40;;;6.30;6.90;;;;;;5014637;28;20406;-73
2022/04/04 10:02:05;;;;;;;16.93;15.57;;;6.30;7.60;;;;;;5013224;28;20450;-73
2022/04/04 10:04:32;;;;;;;15.20;14.20;;;6.40;8.10;;;;;;5014584;28;20749;-72
2022/04/04 10:06:59;;;;;;;16.30;15.20;;;6.30;8.00;;;;;;5014359;28;20788;-73
2022/04/04 10:09:25;;;;;;;15.60;14.40;;;6.40;8.10;;;;;;5014708;28;20424;-73
2022/04/04 10:11:51;;;;;;;15.70;14.70;;;6.30;7.70;;;;;;5014430;28;20464;-73
2022/04/04 10:14:18;;;;;;;16.60;15.43;;;6.40;7.30;;;;;;5014369;28;20896;-74
2022/04/04 10:16:44;;;;;;;15.67;14.77;;;6.40;6.70;;;;;;5013899;28;20508;-73
2022/04/04 10:19:11;;;;;;;14.80;14.00;;;6.40;7.10;;;;;;5014265;28;20826;-73
2022/04/04 10:21:37;;;;;;;15.73;14.40;;;6.20;7.40;;;;;;5014529;28;20414;-69
2022/04/04 10:24:07;;;;;;;16.03;15.20;;;6.40;7.00;;;;;;5013647;28;20974;-69
2022/04/04 10:26:34;;;;;;;16.00;14.97;;;6.20;6.80;;;;;;5012891;28;20725;-70
2022/04/04 10:29:12;;;;;;;15.63;14.77;;;6.30;5.80;;;;;;5014256;28;20411;-69
2022/04/04 10:31:43;;;;;;;15.40;14.50;;;6.40;5.10;;;;;;5011581;28;20438;-70
2022/04/04 10:34:12;;;;;;;17.23;15.93;;;6.40;5.30;;;;;;5014366;28;20450;-69
2022/04/04 10:36:37;;;;;;;16.17;15.03;;;6.40;5.00;;;;;;5013882;28;20494;-70
2022/04/04 10:39:03;;;;;;;16.13;15.23;;;6.40;5.80;;;;;;5011013;28;20478;-69
2022/04/04 10:41:32;;;;;;;15.67;14.87;;;6.50;6.70;;;;;;5013828;28;20176;-70
2022/04/04 10:43:58;;;;;;;15.37;14.47;;;6.10;4.30;;;;;;5011502;28;20195;-71
2022/04/04 10:46:27;;;;;;;17.67;16.30;;;6.30;5.70;;;;;;5013465;28;20432;-71
2022/04/04 10:49:02;;;;;;;16.97;16.03;;;6.40;6.10;;;;;;5013806;28;20498;-70
2022/04/04 10:51:34;;;;;;;16.07;15.23;;;6.50;6.40;;;;;;5013770;28;20481;-69
2022/04/04 10:54:04;;;;;;;16.40;15.20;;;6.50;6.50;;;;;;5012478;28;20446;-71
2022/04/04 10:56:33;;;;;;;14.60;13.80;;;6.60;6.50;;;;;;5014003;28;20470;-69
2022/04/04 10:59:19;;;;;;;15.97;15.00;;;6.70;7.10;;;;;;5013903;28;20480;-71
2022/04/04 11:01:48;;;;;;;16.40;15.40;;;6.70;6.40;;;;;;5014060;28;20419;-70
2022/04/04 11:04:25;;;;;;;17.53;16.53;;;6.70;7.60;;;;;;5013877;28;20786;-69
2022/04/04 11:09:55;;;;;;;15.30;14.50;;;6.70;7.20;;;;;;5013616;28;20502;-71
2022/04/04 11:12:23;;;;;;;18.33;16.50;;;6.90;6.80;;;;;;5014637;28;20901;-70
2022/04/04 11:14:57;;;;;;;15.90;14.90;;;7.10;8.60;;;;;;5013562;28;20419;-70
2022/04/04 11:17:30;;;;;;;16.10;15.30;;;7.10;7.40;;;;;;5013214;28;20477;-69
2022/04/04 11:20:02;;;;;;;15.67;14.87;;;7.60;13.20;;;;;;5013037;28;20430;-69
2022/04/04 11:22:30;;;;;;;16.40;15.40;;;7.40;7.70;;;;;;5035883;23;21497;-72
2022/04/04 11:25:05;;;;;;;16.43;15.23;;;7.50;6.80;;;;;;5012528;28;20850;-71
2022/04/04 11:27:35;;;;;;;16.37;15.40;;;7.60;6.30;;;;;;5012538;28;20818;-71
2022/04/04 11:30:07;;;;;;;15.10;14.30;;;7.80;5.70;;;;;;5012634;28;20453;-71
2022/04/04 11:32:38;;;;;;;15.90;14.70;;;7.90;5.10;;;;;;5016209;28;20422;-72
2022/04/04 11:35:12;;;;;;;15.87;15.03;;;7.60;5.20;;;;;;5030873;28;20402;-71
2022/04/04 11:37:43;;;;;;;15.63;14.63;;;7.70;5.70;;;;;;5031817;28;20467;-71
2022/04/04 11:40:13;;;;;;;15.10;14.30;;;7.70;6.10;;;;;;5032052;28;20948;-71
2022/04/04 11:42:42;;;;;;;14.37;13.50;;;7.50;7.20;;;;;;5031814;28;20482;-72
2022/04/04 11:45:08;;;;;;;15.67;14.67;;;7.40;6.60;;;;;;5030583;28;20456;-70
2022/04/04 11:47:39;;;;;;;15.90;14.80;;;7.40;4.90;;;;;;5031867;28;20406;-70
2022/04/04 11:50:06;;;;;;;17.20;16.20;;;7.60;6.00;;;;;;5032463;28;20414;-70
2022/04/04 11:52:48;;;;;;;17.40;15.80;;;7.70;6.20;;;;;;5031758;28;20754;-70
2022/04/04 11:55:18;;;;;;;16.27;15.37;;;7.80;6.10;;;;;;5032089;28;20415;-68
2022/04/04 11:57:46;;;;;;;16.20;15.37;;;7.90;6.70;;;;;;5031870;28;20540;-70
2022/04/04 12:00:19;;;;;;;15.50;14.80;;;7.90;4.60;;;;;;5031858;28;20425;-69
2022/04/04 12:02:46;;;;;;;15.57;14.67;;;8.00;5.30;;;;;;5031685;28;20433;-71
2022/04/04 12:05:14;;;;;;;15.67;14.77;;;8.00;6.00;;;;;;5031787;28;20498;-70
2022/04/04 12:07:41;;;;;;;14.83;14.13;;;8.00;6.30;;;;;;5031517;28;20427;-70
2022/04/04 12:10:07;;;;;;;16.03;15.17;;;8.10;6.40;;;;;;5031764;28;20944;-70
2022/04/04 12:12:33;;;;;;;16.03;15.27;;;8.20;6.10;;;;;;5032599;28;20445;-70
2022/04/04 12:14:59;;;;;;;14.87;14.23;;;8.30;6.40;;;;;;5032025;28;20416;-70
2022/04/04 12:17:25;;;;;;;15.93;15.03;;;8.30;5.40;;;;;;5031229;28;20200;-70
2022/04/04 12:19:52;;;;;;;16.63;15.47;;;8.20;6.00;;;;;;5031660;28;20169;-70
2022/04/04 12:25:05;;;;;;;15.73;15.03;;;7.90;4.70;;;;;;5032751;28;20404;-70
2022/04/04 12:27:33;;;;;;;16.20;15.30;;;8.10;5.30;;;;;;5032525;28;20465;-70
2022/04/04 12:30:00;;;;;;;14.90;14.20;;;8.20;6.30;;;;;;5032304;28;20410;-70
2022/04/04 12:32:27;;;;;;;17.10;14.67;;;8.30;5.50;;;;;;5032733;28;20446;-70
2022/04/04 12:34:58;;;;;;;16.07;15.37;;;8.40;6.40;;;;;;5032762;28;21114;-70
2022/04/04 12:37:33;;;;;;;17.30;16.27;;;8.50;6.40;;;;;;5032183;28;20591;-71
2022/04/04 12:40:22;;;;;;;15.80;14.80;;;8.50;5.00;;;;;;5032326;28;20419;-69
2022/04/04 12:42:52;;;;;;;16.17;15.37;;;8.60;5.00;;;;;;5032353;28;20423;-70
2022/04/04 12:45:20;;;;;;;16.10;15.20;;;8.50;5.00;;;;;;5031918;28;20412;-70